Terminal Aerodrome Forecast
Issued by NWS

Home | Current Version | Previous Version | Graphics & Text | Print | Product List | Glossary On
Versions: 1 2 3 4 5 6 7 8 9 10 11 12 13 14 15 16 17 18
000
FTUS43 KMPX 011725
TAFRWF
TAF
KRWF 011725Z 0118/0218 16008KT P6SM BKN250
     FM020600 17011KT P6SM BKN050 PROB30 0206/0210 5SM -TSRA
      BKN050CB=

USA.gov is the U.S. government's official web portal to all federal, state and local government web resources and services.